Airfield :
LOGIN :

Register | Disclaimer

   EN    FR    IT 

 










Legend :    VFR   Marginal VFR   IFR   Intensive IFR   Very Intensive IFR
Visi :
Ceiling :
>= 8 km
>= 3000ft
5 to 8 km
1000 to 3000 ft
1500m to 5 km
500 to 1000 ft
800 to 1500m
200 to 500 ft
< 800m
< 200 ft
Symbols :   Thunderstorms  Fog  Heavy snow  Heavy precipitations  Wind > 20 kt
SIGMETs :     Misc.  Thunderstorms  Icing  Turbulence  Mountain Waves  Volcanic Ashes







- Airport Elevation : 220 ft
- IATA code : CWL
- Download approach charts


EGFF - Cardiff Rhoose

CURRENT METAR :
  • 171250Z AUTO 22007KT 9999 FEW048 11/08 Q1012

EXPIRED METARs :
  • 171220Z AUTO 20007KT 160V230 9999 SCT030 OVC043 11/08 Q1012
  • 171150Z AUTO 14005KT 090V200 9999 OVC049 10/08 Q1012
  • 171120Z AUTO 17006KT 110V210 9999 OVC045 10/08 Q1012
  • 171050Z AUTO VRB02KT 9999 SCT014 OVC039 10/08 Q1012
  • 171020Z AUTO 16008KT 9999 OVC014 09/08 Q1012

TAF TAF EGFF
Valid from the 17 at 12:00 until the 18 at 12:00 UTC


171103Z 1712/1812 18009KT 9999 FEW040
TEMPO 1712/1714 20015G25KT 8000 RA BKN012
BECMG 1810/1812 24010KT
ATIS : +44 1446 729 319
No reported NOTAMs for that airfield.



MET'MAP, your aeronautical weather chart ! - Copyright ORBIFLY December 2007 - Disclaimer

ORBIFLY MET'MAP TEAM :

Programming & Development : Alexandra Zaïnal
Concept & Development : Baudouin d'Aumeries
Co-Development & Prog : Marc-Olivier Méhu
Technical & hardware support : Manuel Goepfert

Contact : metmap@orbifly.com




SOURCES & CREDITS :

   NOAA